createdAt,value
2019-04-26T00:02:24.097Z,99959.38
2019-04-26T00:04:59.725Z,99956.21
2019-04-26T00:07:34.633Z,99960.55
2019-04-26T00:10:18.127Z,99969.92
2019-04-26T00:13:02.050Z,99967.98
2019-04-26T00:15:57.563Z,99962.58
2019-04-26T00:18:32.507Z,99951.81
2019-04-26T00:21:07.720Z,99953.63
2019-04-26T00:23:43.978Z,99956.33
2019-04-26T00:26:20.114Z,99952.30
2019-04-26T00:28:54.143Z,99950.53
2019-04-26T00:31:27.863Z,99946.00
2019-04-26T00:34:01.882Z,99939.36
2019-04-26T00:36:36.667Z,99938.47
2019-04-26T00:39:10.518Z,99934.09
2019-04-26T00:41:46.559Z,99933.47
2019-04-26T00:44:20.900Z,99941.80
2019-04-26T00:46:59.157Z,99943.15
2019-04-26T00:49:43.408Z,99932.39
2019-04-26T00:52:12.998Z,99934.78
2019-04-26T00:54:48.707Z,99931.86
2019-04-26T00:57:25.195Z,99926.20
2019-04-26T01:00:00.954Z,99921.00
2019-04-26T01:02:49.276Z,99920.68
2019-04-26T01:05:25.159Z,99918.57
2019-04-26T01:07:59.361Z,99923.67
2019-04-26T01:10:33.934Z,99927.85
2019-04-26T01:13:10.970Z,99929.76
2019-04-26T01:15:44.665Z,99930.56
2019-04-26T01:18:18.469Z,99929.24
2019-04-26T01:20:56.987Z,99927.98
2019-04-26T01:23:34.406Z,99930.70
2019-04-26T01:26:17.953Z,99929.64
2019-04-26T01:29:07.684Z,99929.64
2019-04-26T01:31:53.912Z,99925.73
2019-04-26T01:34:28.259Z,99923.97
2019-04-26T01:37:04.150Z,99928.34
2019-04-26T01:39:40.509Z,99926.43
2019-04-26T01:42:35.304Z,99921.22
2019-04-26T01:45:34.319Z,99918.47
2019-04-26T01:48:34.289Z,99906.95
2019-04-26T01:51:09.177Z,99899.12
2019-04-26T01:53:45.032Z,99899.49
2019-04-26T01:56:23.467Z,99892.84
2019-04-26T01:58:57.401Z,99904.23
2019-04-26T02:01:56.480Z,99914.06
2019-04-26T02:04:33.375Z,99905.30
2019-04-26T02:07:07.579Z,99897.59
2019-04-26T02:09:44.251Z,99899.34
2019-04-26T02:12:18.058Z,99904.44
2019-04-26T02:14:54.218Z,99923.31
2019-04-26T02:17:27.971Z,99927.79
2019-04-26T02:20:02.214Z,99916.28
2019-04-26T02:22:51.199Z,99907.16
2019-04-26T02:25:25.975Z,99905.47
2019-04-26T02:27:59.838Z,99909.14
2019-04-26T02:30:35.367Z,99904.35
2019-04-26T02:33:09.261Z,99898.70
2019-04-26T02:35:44.398Z,99899.38
2019-04-26T02:38:20.075Z,99897.67
2019-04-26T02:40:54.846Z,99891.86
2019-04-26T02:43:31.211Z,99899.09
2019-04-26T02:46:21.363Z,99909.12
2019-04-26T02:49:21.897Z,99905.32
2019-04-26T02:52:15.438Z,99904.34
2019-04-26T02:55:03.498Z,99899.98
2019-04-26T02:57:54.325Z,99904.03
2019-04-26T03:00:30.207Z,99920.23
2019-04-26T03:03:10.613Z,99930.93
2019-04-26T03:05:47.712Z,99925.97
2019-04-26T03:08:25.787Z,99935.55
2019-04-26T03:11:17.850Z,99949.02
2019-04-26T03:14:20.259Z,99950.66
2019-04-26T03:17:15.909Z,99956.72
2019-04-26T03:20:02.987Z,99941.00
2019-04-26T03:23:57.023Z,99941.00
2019-04-26T03:27:15.131Z,99939.13
2019-04-26T03:30:21.067Z,99939.69
2019-04-26T03:33:54.292Z,99948.02
2019-04-26T03:37:27.808Z,99945.31
2019-04-26T03:40:47.868Z,99936.31
2019-04-26T03:43:55.772Z,99938.09
2019-04-26T03:46:46.752Z,99948.77
2019-04-26T03:49:49.011Z,99952.82
2019-04-26T03:52:55.143Z,99952.06
2019-04-26T03:56:38.027Z,99947.53
2019-04-26T04:00:18.133Z,99957.86
2019-04-26T04:03:14.058Z,99949.64
2019-04-26T04:05:52.179Z,99942.34
2019-04-26T04:08:39.843Z,99937.41
2019-04-26T04:11:19.358Z,99940.51
2019-04-26T04:14:06.748Z,99934.64
2019-04-26T04:17:43.142Z,99937.08
2019-04-26T04:21:11.263Z,99939.77
2019-04-26T04:24:08.412Z,99936.64
2019-04-26T04:27:41.841Z,99947.61
2019-04-26T04:31:01.705Z,99960.84
2019-04-26T04:34:07.641Z,99960.10
2019-04-26T04:36:54.751Z,99953.83
2019-04-26T04:40:37.904Z,99958.28
2019-04-26T04:43:34.914Z,99959.48
2019-04-26T04:46:43.880Z,99956.21
2019-04-26T04:49:50.461Z,99973.15
2019-04-26T04:53:04.886Z,99983.61
2019-04-26T04:56:10.228Z,99990.80
2019-04-26T04:58:53.740Z,99986.23
2019-04-26T05:02:50.668Z,99986.48
2019-04-26T05:06:07.311Z,99977.75
2019-04-26T05:08:56.695Z,99983.59
2019-04-26T05:12:19.946Z,99988.98
2019-04-26T05:16:03.224Z,100001.32
2019-04-26T05:19:28.689Z,100004.47
2019-04-26T05:23:06.582Z,100003.59
2019-04-26T05:27:01.030Z,100023.14
2019-04-26T05:30:31.880Z,100037.95
2019-04-26T05:33:36.340Z,100035.64
2019-04-26T05:36:52.758Z,100051.91
2019-04-26T05:39:51.398Z,100057.90
2019-04-26T05:43:34.283Z,100052.30
2019-04-26T05:47:11.097Z,100047.03
2019-04-26T05:50:58.144Z,100042.92
2019-04-26T05:54:30.776Z,100048.77
2019-04-26T05:57:45.926Z,100052.53
2019-04-26T06:00:47.868Z,100067.31
2019-04-26T06:04:25.115Z,100074.41
2019-04-26T06:07:30.547Z,100089.69
2019-04-26T06:10:33.928Z,100086.31
2019-04-26T06:14:19.102Z,100099.98
2019-04-26T06:17:59.726Z,100097.87
2019-04-26T06:21:07.256Z,100104.34
2019-04-26T06:24:31.223Z,100112.37
2019-04-26T06:27:54.563Z,100105.27
2019-04-26T06:30:59.389Z,100105.98
2019-04-26T06:33:49.956Z,100106.00
2019-04-26T06:36:37.699Z,100120.73
2019-04-26T06:39:32.873Z,100127.73
2019-04-26T06:42:54.879Z,100133.33
2019-04-26T06:46:53.436Z,100131.47
2019-04-26T06:50:15.097Z,100124.16
2019-04-26T06:53:02.047Z,100121.17
2019-04-26T06:55:50.903Z,100121.19
2019-04-26T06:59:21.825Z,100125.34
2019-04-26T07:02:09.823Z,100132.53
2019-04-26T07:05:24.180Z,100127.38
2019-04-26T07:08:57.807Z,100122.11
2019-04-26T07:12:44.419Z,100104.00
2019-04-26T07:16:01.357Z,100103.12
2019-04-26T07:19:54.943Z,100110.28
2019-04-26T07:23:33.020Z,100114.30
2019-04-26T07:26:58.608Z,100110.97
2019-04-26T07:30:26.013Z,100127.02
2019-04-26T07:33:59.409Z,100139.41
2019-04-26T07:37:47.312Z,100157.05
2019-04-26T07:41:42.717Z,100167.73
2019-04-26T07:45:05.484Z,100138.08
2019-04-26T07:48:55.549Z,100123.98
2019-04-26T07:52:21.237Z,100127.22
2019-04-26T07:55:54.978Z,100131.04
2019-04-26T07:59:30.834Z,100139.59
2019-04-26T08:02:29.633Z,100144.86
2019-04-26T08:05:19.704Z,100156.59
2019-04-26T08:08:00.768Z,100152.61
2019-04-26T08:10:40.536Z,100154.86
2019-04-26T08:13:19.541Z,100156.20
2019-04-26T08:16:20.474Z,100162.02
2019-04-26T08:19:02.492Z,100161.20
2019-04-26T08:21:47.931Z,100175.52
2019-04-26T08:24:27.915Z,100182.53
2019-04-26T08:27:18.888Z,100186.97
2019-04-26T08:29:52.668Z,100188.17
2019-04-26T08:32:33.382Z,100175.06
2019-04-26T08:35:21.745Z,100177.98
2019-04-26T08:37:59.605Z,100178.80
2019-04-26T08:40:36.410Z,100182.73
2019-04-26T08:43:45.942Z,100176.09
2019-04-26T08:46:41.918Z,100180.70
2019-04-26T08:49:39.172Z,100177.16
2019-04-26T08:52:14.974Z,100163.80
2019-04-26T08:54:55.368Z,100158.31
2019-04-26T08:57:35.018Z,100172.91
2019-04-26T09:00:27.361Z,100181.76
2019-04-26T09:03:12.060Z,100176.58
2019-04-26T09:06:06.391Z,100175.65
2019-04-26T09:08:45.111Z,100181.27
2019-04-26T09:11:26.458Z,100184.71
2019-04-26T09:14:02.352Z,100186.15
2019-04-26T09:16:36.437Z,100188.47
2019-04-26T09:19:10.384Z,100195.75
2019-04-26T09:21:59.095Z,100203.16
2019-04-26T09:24:41.427Z,100226.42
2019-04-26T09:27:35.208Z,100228.11
2019-04-26T09:30:34.780Z,100225.72
2019-04-26T09:33:17.466Z,100241.36
2019-04-26T09:35:52.543Z,100231.34
2019-04-26T09:38:26.291Z,100231.45
2019-04-26T09:41:00.617Z,100238.35
2019-04-26T09:43:47.824Z,100219.20
2019-04-26T09:46:40.752Z,100228.45
2019-04-26T09:49:29.498Z,100239.09
2019-04-26T09:52:06.332Z,100244.66
2019-04-26T09:54:41.191Z,100246.80
2019-04-26T09:57:15.212Z,100237.69
2019-04-26T10:03:27.947Z,100250.66
2019-04-26T10:06:04.375Z,100250.17
2019-04-26T10:08:38.187Z,100251.77
2019-04-26T10:11:17.495Z,100254.39
2019-04-26T10:13:58.198Z,100248.23
2019-04-26T10:16:37.692Z,100249.39
2019-04-26T10:19:17.366Z,100248.88
2019-04-26T10:21:53.545Z,100253.06
2019-04-26T10:24:27.344Z,100259.31
2019-04-26T10:27:03.434Z,100265.33
2019-04-26T10:29:36.887Z,100272.76
2019-04-26T10:32:11.003Z,100272.14
2019-04-26T10:34:47.250Z,100273.17
2019-04-26T10:37:21.080Z,100273.42
2019-04-26T10:40:13.090Z,100287.08
2019-04-26T10:42:47.530Z,100281.15
2019-04-26T10:45:23.953Z,100283.23
2019-04-26T10:48:01.197Z,100275.84
2019-04-26T10:50:35.209Z,100280.02
2019-04-26T10:53:20.476Z,100283.11
2019-04-26T10:56:11.693Z,100287.33
2019-04-26T10:59:09.814Z,100291.91
2019-04-26T11:01:45.410Z,100294.81
2019-04-26T11:04:19.664Z,100292.58
2019-04-26T11:06:53.794Z,100293.89
2019-04-26T11:09:27.803Z,100291.86
2019-04-26T11:12:01.753Z,100285.34
2019-04-26T11:14:35.460Z,100296.59
2019-04-26T11:17:11.523Z,100283.48
2019-04-26T11:19:46.866Z,100286.23
2019-04-26T11:22:28.929Z,100281.83
2019-04-26T11:24:56.204Z,100288.32
2019-04-26T11:27:31.727Z,100294.36
2019-04-26T11:30:11.582Z,100302.73
2019-04-26T11:32:45.724Z,100302.31
2019-04-26T11:35:21.074Z,100311.67
2019-04-26T11:37:56.638Z,100312.59
2019-04-26T11:40:31.207Z,100321.00
2019-04-26T11:43:05.381Z,100321.47
2019-04-26T11:45:40.109Z,100312.30
2019-04-26T11:48:15.328Z,100309.33
2019-04-26T11:50:54.124Z,100308.67
2019-04-26T11:53:27.940Z,100306.43
2019-04-26T11:56:04.519Z,100313.86
2019-04-26T11:58:37.721Z,100306.17
2019-04-26T12:01:13.075Z,100309.70
2019-04-26T12:04:07.121Z,100316.94
2019-04-26T12:07:04.812Z,100326.49
2019-04-26T12:09:42.213Z,100321.47
2019-04-26T12:12:15.891Z,100326.61
2019-04-26T12:14:49.849Z,100341.13
2019-04-26T12:17:27.020Z,100339.71
2019-04-26T12:20:01.981Z,100338.61
2019-04-26T12:22:39.396Z,100344.82
2019-04-26T12:25:13.329Z,100341.23
2019-04-26T12:27:47.451Z,100342.77
2019-04-26T12:30:26.438Z,100342.34
2019-04-26T12:32:57.925Z,100345.41
2019-04-26T12:35:33.871Z,100350.08
2019-04-26T12:38:07.682Z,100359.52
2019-04-26T12:40:42.299Z,100349.97
2019-04-26T12:43:20.189Z,100357.44
2019-04-26T12:46:32.200Z,100351.83
2019-04-26T12:49:06.412Z,100354.70
2019-04-26T12:51:42.705Z,100354.69
2019-04-26T12:54:15.649Z,100350.00
2019-04-26T12:56:49.462Z,100346.78
2019-04-26T12:59:26.541Z,100349.41
2019-04-26T13:02:05.825Z,100348.80
2019-04-26T13:04:40.537Z,100345.23
2019-04-26T13:07:23.878Z,100339.65
2019-04-26T13:10:15.763Z,100338.91
2019-04-26T13:13:06.356Z,100333.91
2019-04-26T13:16:15.670Z,100329.00
2019-04-26T13:18:51.657Z,100325.03
2019-04-26T13:21:25.539Z,100338.09
2019-04-26T13:24:04.319Z,100347.98
2019-04-26T13:26:36.441Z,100352.50
2019-04-26T13:29:10.533Z,100353.16
2019-04-26T13:31:44.577Z,100358.58
2019-04-26T13:34:19.371Z,100367.61
2019-04-26T13:36:53.941Z,100368.47
2019-04-26T13:39:28.038Z,100368.82
2019-04-26T13:42:06.685Z,100361.09
2019-04-26T13:45:00.632Z,100370.25
2019-04-26T13:48:03.618Z,100366.53
2019-04-26T13:50:44.779Z,100370.48
2019-04-26T13:53:22.227Z,100371.79
2019-04-26T13:55:58.170Z,100378.45
2019-04-26T13:58:30.121Z,100384.55
2019-04-26T14:01:05.614Z,100388.16
2019-04-26T14:03:41.096Z,100392.80
2019-04-26T14:06:18.267Z,100403.59
2019-04-26T14:08:58.267Z,100411.55
2019-04-26T14:11:34.180Z,100416.43
2019-04-26T14:14:11.062Z,100420.34
2019-04-26T14:16:45.799Z,100432.52
2019-04-26T14:19:24.119Z,100429.10
2019-04-26T14:21:58.622Z,100443.20
2019-04-26T14:24:41.027Z,100453.95
2019-04-26T14:27:24.042Z,100449.33
2019-04-26T14:29:57.708Z,100445.91
2019-04-26T14:32:31.547Z,100450.55
2019-04-26T14:35:05.898Z,100452.38
2019-04-26T14:37:40.142Z,100459.27
2019-04-26T14:40:17.284Z,100469.77
2019-04-26T14:42:50.484Z,100472.72
2019-04-26T14:45:24.516Z,100475.33
2019-04-26T14:48:00.275Z,100466.44
2019-04-26T14:50:37.016Z,100465.16
2019-04-26T14:53:11.048Z,100465.80
2019-04-26T14:55:51.207Z,100470.45
2019-04-26T14:58:23.897Z,100480.89
2019-04-26T15:01:03.203Z,100486.58
2019-04-26T15:03:51.488Z,100483.30
2019-04-26T15:06:33.030Z,100486.03
2019-04-26T15:09:17.998Z,100480.83
2019-04-26T15:11:53.328Z,100470.22
2019-04-26T15:14:20.634Z,100466.56
2019-04-26T15:16:54.410Z,100467.98
2019-04-26T15:19:28.640Z,100468.84
2019-04-26T15:22:04.062Z,100476.38
2019-04-26T15:24:40.023Z,100483.81
2019-04-26T15:27:13.683Z,100484.92
2019-04-26T15:29:47.510Z,100486.43
2019-04-26T15:32:21.790Z,100473.67
2019-04-26T15:34:58.581Z,100478.80
2019-04-26T15:37:32.241Z,100487.34
2019-04-26T15:40:27.414Z,100488.56
2019-04-26T15:43:16.052Z,100491.42
2019-04-26T15:46:14.795Z,100496.91
2019-04-26T15:49:05.166Z,100511.41
2019-04-26T15:51:42.648Z,100517.44
2019-04-26T15:54:17.945Z,100519.88
2019-04-26T15:56:55.305Z,100516.52
2019-04-26T15:59:29.573Z,100516.70
2019-04-26T16:02:03.622Z,100507.25
2019-04-26T16:04:38.456Z,100492.65
2019-04-26T16:07:16.661Z,100492.72
2019-04-26T16:09:57.596Z,100493.83
2019-04-26T16:12:32.072Z,100500.62
2019-04-26T16:15:11.415Z,100502.92
2019-04-26T16:17:43.267Z,100507.22
2019-04-26T16:20:17.230Z,100494.94
2019-04-26T16:22:53.380Z,100490.53
2019-04-26T16:25:27.142Z,100490.45
2019-04-26T16:28:18.814Z,100491.94
2019-04-26T16:31:11.890Z,100499.69
2019-04-26T16:33:47.154Z,100510.46
2019-04-26T16:36:23.953Z,100514.38
2019-04-26T16:38:58.079Z,100518.66
2019-04-26T16:41:38.111Z,100530.14
2019-04-26T16:44:13.023Z,100531.35
2019-04-26T16:46:46.904Z,100527.75
2019-04-26T16:49:28.893Z,100514.44
2019-04-26T16:52:06.813Z,100513.41
2019-04-26T16:54:38.607Z,100511.94
2019-04-26T16:57:12.753Z,100506.22
2019-04-26T16:59:53.551Z,100496.97
2019-04-26T17:02:26.174Z,100488.34
2019-04-26T17:05:04.611Z,100491.97
2019-04-26T17:07:39.179Z,100499.41
2019-04-26T17:10:09.391Z,100507.01
2019-04-26T17:12:46.186Z,100502.50
2019-04-26T17:15:21.014Z,100504.65
2019-04-26T17:17:54.882Z,100506.95
2019-04-26T17:20:29.681Z,100507.48
2019-04-26T17:23:39.159Z,100502.13
2019-04-26T17:26:36.564Z,100499.45
2019-04-26T17:29:10.819Z,100507.11
2019-04-26T17:31:44.857Z,100511.38
2019-04-26T17:34:22.505Z,100517.88
2019-04-26T17:36:55.254Z,100518.41
2019-04-26T17:39:30.413Z,100521.84
2019-04-26T17:42:04.991Z,100524.41
2019-04-26T17:44:39.150Z,100530.80
2019-04-26T17:47:20.273Z,100534.50
2019-04-26T17:49:57.464Z,100538.93
2019-04-26T17:52:36.126Z,100554.20
2019-04-26T17:55:07.937Z,100560.48
2019-04-26T17:57:48.410Z,100563.20
2019-04-26T18:00:27.166Z,100570.97
2019-04-26T18:03:01.793Z,100579.77
2019-04-26T18:05:55.891Z,100584.97
2019-04-26T18:08:33.585Z,100583.05
2019-04-26T18:10:51.364Z,100575.06
2019-04-26T18:13:26.385Z,100577.34
2019-04-26T18:16:03.494Z,100571.08
2019-04-26T18:19:05.628Z,100583.86
2019-04-26T18:21:56.435Z,100591.86
2019-04-26T18:24:32.303Z,100585.91
2019-04-26T18:27:05.365Z,100584.14
2019-04-26T18:29:39.485Z,100581.33
2019-04-26T18:32:16.186Z,100574.48
2019-04-26T18:34:50.534Z,100576.57
2019-04-26T18:37:25.276Z,100576.83
2019-04-26T18:40:02.036Z,100576.06
2019-04-26T18:42:37.583Z,100571.87
2019-04-26T18:45:14.088Z,100579.44
2019-04-26T18:47:49.342Z,100583.41
2019-04-26T18:50:24.246Z,100585.63
2019-04-26T18:53:19.637Z,100586.05
2019-04-26T18:55:53.623Z,100573.89
2019-04-26T18:58:34.102Z,100580.56
2019-04-26T19:01:07.255Z,100578.92
2019-04-26T19:03:43.722Z,100578.75
2019-04-26T19:06:28.665Z,100583.77
2019-04-26T19:08:57.623Z,100583.08
2019-04-26T19:11:32.419Z,100592.95
2019-04-26T19:14:31.884Z,100599.52
2019-04-26T19:17:31.777Z,100596.76
2019-04-26T19:20:27.504Z,100594.03
2019-04-26T19:23:05.687Z,100605.23
2019-04-26T19:25:41.236Z,100609.91
2019-04-26T19:28:23.641Z,100608.92
2019-04-26T19:30:58.964Z,100617.41
2019-04-26T19:33:32.810Z,100620.87
2019-04-26T19:36:08.079Z,100625.06
2019-04-26T19:38:49.935Z,100614.94
2019-04-26T19:41:22.770Z,100621.73
2019-04-26T19:43:57.702Z,100610.96
2019-04-26T19:47:07.191Z,100613.55
2019-04-26T19:50:03.092Z,100616.41
2019-04-26T19:52:55.841Z,100634.59
2019-04-26T19:55:51.850Z,100644.33
2019-04-26T19:58:28.017Z,100647.28
2019-04-26T20:01:04.384Z,100647.80
2019-04-26T20:03:40.743Z,100656.29
2019-04-26T20:06:18.834Z,100660.19
2019-04-26T20:08:51.976Z,100667.27
2019-04-26T20:11:26.678Z,100676.11
2019-04-26T20:14:01.148Z,100681.19
2019-04-26T20:16:40.847Z,100680.92
2019-04-26T20:19:17.741Z,100673.73
2019-04-26T20:21:51.176Z,100672.60
2019-04-26T20:24:25.951Z,100668.41
2019-04-26T20:27:01.444Z,100664.81
2019-04-26T20:29:40.825Z,100662.82
2019-04-26T20:32:23.873Z,100659.70
2019-04-26T20:35:14.029Z,100652.65
2019-04-26T20:37:48.679Z,100642.00
2019-04-26T20:40:25.379Z,100631.39
2019-04-26T20:43:03.350Z,100621.70
2019-04-26T20:45:41.465Z,100604.72
2019-04-26T20:48:13.243Z,100590.48
2019-04-26T20:50:47.384Z,100588.71
2019-04-26T20:53:22.550Z,100593.37
2019-04-26T20:55:57.086Z,100592.69
2019-04-26T20:58:32.370Z,100589.49
2019-04-26T21:01:12.391Z,100590.79
2019-04-26T21:03:46.161Z,100589.84
2019-04-26T21:06:21.972Z,100585.64
2019-04-26T21:08:59.175Z,100578.80
2019-04-26T21:11:37.264Z,100578.58
2019-04-26T21:14:08.831Z,100585.51
2019-04-26T21:16:45.303Z,100585.81
2019-04-26T21:19:19.192Z,100581.88
2019-04-26T21:21:53.690Z,100572.48
2019-04-26T21:24:29.750Z,100570.02
2019-04-26T21:27:33.283Z,100562.09
2019-04-26T21:30:29.440Z,100565.47
2019-04-26T21:33:17.388Z,100572.35
2019-04-26T21:36:16.068Z,100575.59
2019-04-26T21:39:08.716Z,100588.54
2019-04-26T21:41:45.181Z,100593.55
2019-04-26T21:44:20.132Z,100598.55
2019-04-26T21:46:58.639Z,100606.63
2019-04-26T21:49:29.881Z,100615.48
2019-04-26T21:52:03.913Z,100611.28
2019-04-26T21:54:40.174Z,100606.03
2019-04-26T21:57:14.046Z,100615.48
2019-04-26T21:59:48.057Z,100620.60
2019-04-26T22:02:25.385Z,100625.09
2019-04-26T22:04:59.302Z,100626.26
2019-04-26T22:07:34.961Z,100625.32
2019-04-26T22:10:18.439Z,100623.67
2019-04-26T22:12:53.921Z,100619.69
2019-04-26T22:15:58.593Z,100618.39
2019-04-26T22:19:03.832Z,100612.97
2019-04-26T22:22:04.189Z,100594.88
2019-04-26T22:24:39.475Z,100602.98
2019-04-26T22:27:13.398Z,100598.92
2019-04-26T22:29:51.814Z,100605.08
2019-04-26T22:32:24.891Z,100600.45
2019-04-26T22:34:58.553Z,100599.67
2019-04-26T22:37:33.719Z,100594.95
2019-04-26T22:40:10.581Z,100592.91
2019-04-26T22:42:45.149Z,100595.66
2019-04-26T22:45:39.480Z,100600.61
2019-04-26T22:48:25.662Z,100599.63
2019-04-26T22:51:04.479Z,100603.74
2019-04-26T22:53:37.114Z,100600.61
2019-04-26T22:56:11.073Z,100597.38
2019-04-26T22:58:44.785Z,100596.84
2019-04-26T23:01:18.742Z,100598.98
2019-04-26T23:03:53.231Z,100599.84
2019-04-26T23:06:27.995Z,100597.60
2019-04-26T23:09:01.693Z,100598.00
2019-04-26T23:11:35.509Z,100594.52
2019-04-26T23:14:29.476Z,100593.52
2019-04-26T23:17:50.050Z,100589.95
2019-04-26T23:20:34.329Z,100591.83
2019-04-26T23:23:08.612Z,100595.13
2019-04-26T23:25:43.499Z,100599.02
2019-04-26T23:28:17.252Z,100589.31
2019-04-26T23:30:52.974Z,100584.37
2019-04-26T23:33:27.516Z,100578.41
2019-04-26T23:36:03.232Z,100578.88
2019-04-26T23:38:37.745Z,100574.05
2019-04-26T23:41:14.015Z,100569.34
2019-04-26T23:43:47.017Z,100571.17
2019-04-26T23:46:22.855Z,100570.93
2019-04-26T23:48:59.077Z,100569.17
2019-04-26T23:51:33.994Z,100560.86
2019-04-26T23:54:07.809Z,100550.17
2019-04-26T23:56:41.620Z,100540.34
2019-04-26T23:59:20.922Z,100536.91
